createdAt,value
2023-03-29T00:00:46.854Z,51.179272
2023-03-29T00:01:46.823Z,51.179283
2023-03-29T00:02:46.854Z,51.179287
2023-03-29T00:03:46.849Z,51.179272
2023-03-29T00:04:47.820Z,51.179272
2023-03-29T00:05:46.794Z,51.179241
2023-03-29T00:06:46.769Z,51.179287
2023-03-29T00:07:46.780Z,51.179279
2023-03-29T00:08:46.726Z,51.179264
2023-03-29T00:09:46.737Z,51.179241
2023-03-29T00:10:46.750Z,51.179260
2023-03-29T00:11:46.724Z,51.179279
2023-03-29T00:12:46.693Z,51.179287
2023-03-29T00:13:46.710Z,51.179298
2023-03-29T00:14:46.733Z,51.179272
2023-03-29T00:15:46.686Z,51.179245
2023-03-29T00:16:46.868Z,51.179249
2023-03-29T00:17:46.705Z,51.179268
2023-03-29T00:18:46.654Z,51.179268
2023-03-29T00:19:46.652Z,51.179272
2023-03-29T00:20:46.609Z,51.179234
2023-03-29T00:21:46.602Z,51.179241
2023-03-29T00:22:46.657Z,51.179249
2023-03-29T00:23:46.566Z,51.179249
2023-03-29T00:24:46.589Z,51.179245
2023-03-29T00:25:46.575Z,51.179256
2023-03-29T00:26:46.582Z,51.179256
2023-03-29T00:27:46.546Z,51.179234
2023-03-29T00:28:46.554Z,51.179226
2023-03-29T00:29:46.602Z,51.179264
2023-03-29T00:30:46.500Z,51.179291
2023-03-29T00:31:46.546Z,51.179306
2023-03-29T00:32:46.506Z,51.179279
2023-03-29T00:33:46.485Z,51.179272
2023-03-29T00:34:46.479Z,51.179272
2023-03-29T00:35:46.515Z,51.179268
2023-03-29T00:36:46.455Z,51.179256
2023-03-29T00:37:46.439Z,51.179230
2023-03-29T00:38:46.443Z,51.179256
2023-03-29T00:39:46.405Z,51.179272
2023-03-29T00:40:46.424Z,51.179245
2023-03-29T00:41:46.408Z,51.179253
2023-03-29T00:42:46.387Z,51.179249
2023-03-29T00:43:46.367Z,51.179226
2023-03-29T00:44:46.381Z,51.179245
2023-03-29T00:45:46.353Z,51.179256
2023-03-29T00:46:46.367Z,51.179237
2023-03-29T00:47:46.407Z,51.179287
2023-03-29T00:48:46.355Z,51.179317
2023-03-29T00:49:46.318Z,51.179276
2023-03-29T00:50:46.300Z,51.179272
2023-03-29T00:51:46.311Z,51.179279
2023-03-29T00:52:46.330Z,51.179276
2023-03-29T00:53:46.266Z,51.179260
2023-03-29T00:54:46.245Z,51.179253
2023-03-29T00:55:46.268Z,51.179253
2023-03-29T00:56:46.240Z,51.179264
2023-03-29T00:57:46.228Z,51.179260
2023-03-29T00:58:46.236Z,51.179241
2023-03-29T00:59:46.220Z,51.179256
2023-03-29T01:00:46.192Z,51.179260
2023-03-29T01:01:46.235Z,51.179237
2023-03-29T01:02:46.226Z,51.179226
2023-03-29T01:03:46.388Z,51.179241
2023-03-29T01:04:46.196Z,51.179283
2023-03-29T01:05:46.161Z,51.179287
2023-03-29T01:06:46.182Z,51.179317
2023-03-29T01:07:46.145Z,51.179268
2023-03-29T01:08:46.133Z,51.179276
2023-03-29T01:09:46.128Z,51.179276
2023-03-29T01:10:46.087Z,51.179226
2023-03-29T01:11:46.109Z,51.179241
2023-03-29T01:12:46.056Z,51.179256
2023-03-29T01:13:46.065Z,51.179207
2023-03-29T01:14:47.076Z,51.179234
2023-03-29T01:15:46.055Z,51.179249
2023-03-29T01:16:46.105Z,51.179249
2023-03-29T01:17:46.051Z,51.179256
2023-03-29T01:18:46.043Z,51.179268
2023-03-29T01:19:46.010Z,51.179283
2023-03-29T01:20:45.995Z,51.179249
2023-03-29T01:21:45.992Z,51.179256
2023-03-29T01:22:46.003Z,51.179268
2023-03-29T01:23:45.991Z,51.179287
2023-03-29T01:24:45.958Z,51.179295
2023-03-29T01:25:45.952Z,51.179291
2023-03-29T01:26:45.970Z,51.179272
2023-03-29T01:27:45.919Z,51.179245
2023-03-29T01:28:45.938Z,51.179287
2023-03-29T01:29:45.906Z,51.179283
2023-03-29T01:30:45.884Z,51.179272
2023-03-29T01:31:46.001Z,51.179272
2023-03-29T01:32:45.936Z,51.179268
2023-03-29T01:33:45.885Z,51.179272
2023-03-29T01:34:45.834Z,51.179260
2023-03-29T01:35:45.895Z,51.179268
2023-03-29T01:36:45.809Z,51.179199
2023-03-29T01:37:45.818Z,51.179214
2023-03-29T01:38:45.836Z,51.179249
2023-03-29T01:39:45.811Z,51.179253
2023-03-29T01:40:45.789Z,51.179241
2023-03-29T01:41:45.771Z,51.179234
2023-03-29T01:42:45.774Z,51.179218
2023-03-29T01:43:46.766Z,51.179211
2023-03-29T01:44:45.776Z,51.179218
2023-03-29T01:45:45.754Z,51.179260
2023-03-29T01:46:45.735Z,51.179287
2023-03-29T01:47:45.746Z,51.179256
2023-03-29T01:48:45.716Z,51.179256
2023-03-29T01:49:45.692Z,51.179260
2023-03-29T01:50:45.685Z,51.179249
2023-03-29T01:51:45.676Z,51.179211
2023-03-29T01:52:45.674Z,51.179211
2023-03-29T01:53:45.649Z,51.179203
2023-03-29T01:54:45.624Z,51.179234
2023-03-29T01:55:45.653Z,51.179253
2023-03-29T01:56:45.661Z,51.179203
2023-03-29T01:57:45.607Z,51.179214
2023-03-29T01:58:45.584Z,51.179245
2023-03-29T01:59:45.601Z,51.179234
2023-03-29T02:00:45.580Z,51.179230
2023-03-29T02:01:45.603Z,51.179211
2023-03-29T02:02:45.714Z,51.179222
2023-03-29T02:03:45.642Z,51.179245
2023-03-29T02:04:45.519Z,51.179253
2023-03-29T02:05:45.518Z,51.179230
2023-03-29T02:06:45.534Z,51.179245
2023-03-29T02:07:45.498Z,51.179211
2023-03-29T02:08:45.553Z,51.179211
2023-03-29T02:09:45.489Z,51.179207
2023-03-29T02:10:45.472Z,51.179237
2023-03-29T02:11:45.460Z,51.179256
2023-03-29T02:12:45.481Z,51.179241
2023-03-29T02:13:45.450Z,51.179256
2023-03-29T02:14:45.412Z,51.179276
2023-03-29T02:15:45.483Z,51.179272
2023-03-29T02:16:45.423Z,51.179245
2023-03-29T02:17:45.429Z,51.179256
2023-03-29T02:18:45.405Z,51.179310
2023-03-29T02:19:45.387Z,51.179256
2023-03-29T02:20:45.355Z,51.179230
2023-03-29T02:21:45.356Z,51.179226
2023-03-29T02:22:45.385Z,51.179276
2023-03-29T02:23:45.371Z,51.179302
2023-03-29T02:24:45.320Z,51.179249
2023-03-29T02:25:45.321Z,51.179207
2023-03-29T02:26:45.327Z,51.179211
2023-03-29T02:27:45.301Z,51.179153
2023-03-29T02:28:45.276Z,51.179138
2023-03-29T02:29:45.281Z,51.179192
2023-03-29T02:30:45.290Z,51.179249
2023-03-29T02:31:45.383Z,51.179234
2023-03-29T02:32:45.286Z,51.179226
2023-03-29T02:33:45.281Z,51.179214
2023-03-29T02:34:45.232Z,51.179226
2023-03-29T02:35:45.230Z,51.179253
2023-03-29T02:36:45.213Z,51.179249
2023-03-29T02:37:45.220Z,51.179207
2023-03-29T02:38:45.182Z,51.179195
2023-03-29T02:39:45.184Z,51.179195
2023-03-29T02:40:45.154Z,51.179249
2023-03-29T02:41:45.157Z,51.179249
2023-03-29T02:42:45.153Z,51.179241
2023-03-29T02:43:45.138Z,51.179230
2023-03-29T02:44:45.103Z,51.179241
2023-03-29T02:45:45.101Z,51.179234
2023-03-29T02:46:45.149Z,51.179230
2023-03-29T02:47:45.150Z,51.179241
2023-03-29T02:48:45.108Z,51.179195
2023-03-29T02:49:45.091Z,51.179218
2023-03-29T02:50:45.041Z,51.179222
2023-03-29T02:51:45.058Z,51.179222
2023-03-29T02:52:45.062Z,51.179226
2023-03-29T02:53:45.038Z,51.179237
2023-03-29T02:54:45.001Z,51.179230
2023-03-29T02:55:45.007Z,51.179264
2023-03-29T02:56:45.085Z,51.179272
2023-03-29T02:57:44.994Z,51.179226
2023-03-29T02:58:45.019Z,51.179237
2023-03-29T02:59:44.986Z,51.179230
2023-03-29T03:00:44.937Z,51.179207
2023-03-29T03:01:45.080Z,51.179199
2023-03-29T03:02:45.033Z,51.179234
2023-03-29T03:03:45.044Z,51.179260
2023-03-29T03:04:44.973Z,51.179283
2023-03-29T03:05:44.908Z,51.179245
2023-03-29T03:06:44.893Z,51.179260
2023-03-29T03:07:44.890Z,51.179253
2023-03-29T03:08:44.903Z,51.179245
2023-03-29T03:09:45.888Z,51.179249
2023-03-29T03:10:44.844Z,51.179237
2023-03-29T03:11:44.862Z,51.179234
2023-03-29T03:12:44.829Z,51.179237
2023-03-29T03:13:44.824Z,51.179195
2023-03-29T03:14:44.825Z,51.179226
2023-03-29T03:15:44.809Z,51.179260
2023-03-29T03:16:44.906Z,51.179283
2023-03-29T03:18:16.780Z,51.179287
2023-03-29T03:18:44.777Z,51.179264
2023-03-29T03:19:44.799Z,51.179295
2023-03-29T03:20:44.752Z,51.179268
2023-03-29T03:21:44.785Z,51.179207
2023-03-29T03:22:44.737Z,51.179291
2023-03-29T03:23:44.747Z,51.179314
2023-03-29T03:24:44.731Z,51.179276
2023-03-29T03:25:44.714Z,51.179272
2023-03-29T03:26:44.719Z,51.179260
2023-03-29T03:27:44.688Z,51.179241
2023-03-29T03:28:44.682Z,51.179234
2023-03-29T03:29:44.648Z,51.179218
2023-03-29T03:30:44.657Z,51.179245
2023-03-29T03:31:44.794Z,51.179249
2023-03-29T03:32:44.754Z,51.179256
2023-03-29T03:33:44.651Z,51.179245
2023-03-29T03:34:44.616Z,51.179272
2023-03-29T03:35:44.618Z,51.179249
2023-03-29T03:36:44.577Z,51.179264
2023-03-29T03:37:44.572Z,51.179260
2023-03-29T03:38:44.594Z,51.179249
2023-03-29T03:39:44.545Z,51.179241
2023-03-29T03:40:44.557Z,51.179218
2023-03-29T03:41:44.530Z,51.179268
2023-03-29T03:42:44.539Z,51.179260
2023-03-29T03:43:44.506Z,51.179260
2023-03-29T03:44:44.519Z,51.179256
2023-03-29T03:45:44.536Z,51.179279
2023-03-29T03:46:44.515Z,51.179268
2023-03-29T03:47:44.524Z,51.179222
2023-03-29T03:48:44.455Z,51.179218
2023-03-29T03:49:44.449Z,51.179211
2023-03-29T03:50:44.433Z,51.179260
2023-03-29T03:51:44.424Z,51.179283
2023-03-29T03:52:44.457Z,51.179298
2023-03-29T03:53:44.429Z,51.179302
2023-03-29T03:54:44.412Z,51.179295
2023-03-29T03:55:44.379Z,51.179317
2023-03-29T03:56:44.393Z,51.179287
2023-03-29T03:57:44.363Z,51.179226
2023-03-29T03:58:44.379Z,51.179222
2023-03-29T03:59:44.335Z,51.179222
2023-03-29T04:00:44.322Z,51.179211
2023-03-29T04:01:44.356Z,51.179237
2023-03-29T04:02:44.431Z,51.179264
2023-03-29T04:03:44.338Z,51.179241
2023-03-29T04:04:44.283Z,51.179214
2023-03-29T04:05:44.300Z,51.179283
2023-03-29T04:06:44.283Z,51.179298
2023-03-29T04:07:44.289Z,51.179264
2023-03-29T04:08:44.258Z,51.179272
2023-03-29T04:09:44.230Z,51.179264
2023-03-29T04:10:44.233Z,51.179264
2023-03-29T04:11:44.300Z,51.179264
2023-03-29T04:12:44.226Z,51.179253
2023-03-29T04:13:44.188Z,51.179184
2023-03-29T04:14:44.184Z,51.179199
2023-03-29T04:15:44.205Z,51.179195
2023-03-29T04:16:44.181Z,51.179211
2023-03-29T04:17:44.218Z,51.179214
2023-03-29T04:18:44.291Z,51.179272
2023-03-29T04:19:44.158Z,51.179256
2023-03-29T04:20:44.129Z,51.179218
2023-03-29T04:21:44.134Z,51.179214
2023-03-29T04:22:44.124Z,51.179184
2023-03-29T04:23:44.116Z,51.179234
2023-03-29T04:24:44.110Z,51.179264
2023-03-29T04:25:44.074Z,51.179222
2023-03-29T04:26:44.053Z,51.179207
2023-03-29T04:27:44.054Z,51.179230
2023-03-29T04:28:44.040Z,51.179241
2023-03-29T04:29:44.034Z,51.179226
2023-03-29T04:30:44.027Z,51.179222
2023-03-29T04:31:44.053Z,51.179222
2023-03-29T04:32:44.094Z,51.179291
2023-03-29T04:33:44.010Z,51.179306
2023-03-29T04:34:43.993Z,51.179253
2023-03-29T04:35:44.066Z,51.179245
2023-03-29T04:36:44.050Z,51.179211
2023-03-29T04:37:43.998Z,51.179226
2023-03-29T04:38:47.378Z,51.179264
2023-03-29T04:39:44.974Z,51.179237
2023-03-29T04:40:44.114Z,51.179276
2023-03-29T04:41:43.902Z,51.179253
2023-03-29T04:42:43.918Z,51.179211
2023-03-29T04:43:43.901Z,51.179195
2023-03-29T04:44:43.984Z,51.179192
2023-03-29T04:45:43.882Z,51.179176
2023-03-29T04:46:43.890Z,51.179203
2023-03-29T04:47:43.906Z,51.179218
2023-03-29T04:48:43.862Z,51.179218
2023-03-29T04:49:43.859Z,51.179234
2023-03-29T04:50:43.823Z,51.179211
2023-03-29T04:51:43.830Z,51.179226
2023-03-29T04:52:43.796Z,51.179195
2023-03-29T04:53:43.800Z,51.179192
2023-03-29T04:54:43.793Z,51.179211
2023-03-29T04:55:43.768Z,51.179245
2023-03-29T04:56:43.807Z,51.179241
2023-03-29T04:57:43.758Z,51.179234
2023-03-29T04:58:43.757Z,51.179241
2023-03-29T04:59:43.711Z,51.179230
2023-03-29T05:00:44.728Z,51.179241
2023-03-29T05:01:43.787Z,51.179234
2023-03-29T05:02:43.721Z,51.179230
2023-03-29T05:03:43.718Z,51.179241
2023-03-29T05:04:43.718Z,51.179214
2023-03-29T05:05:43.675Z,51.179203
2023-03-29T05:06:43.684Z,51.179218
2023-03-29T05:07:43.637Z,51.179230
2023-03-29T05:08:43.630Z,51.179256
2023-03-29T05:09:43.625Z,51.179199
2023-03-29T05:10:43.654Z,51.179256
2023-03-29T05:11:43.646Z,51.179287
2023-03-29T05:12:43.599Z,51.179283
2023-03-29T05:13:43.595Z,51.179283
2023-03-29T05:14:43.604Z,51.179298
2023-03-29T05:15:43.566Z,51.179279
2023-03-29T05:16:43.575Z,51.179268
2023-03-29T05:17:43.566Z,51.179260
2023-03-29T05:18:43.512Z,51.179276
2023-03-29T05:19:43.539Z,51.179283
2023-03-29T05:20:43.499Z,51.179245
2023-03-29T05:21:45.397Z,51.179207
2023-03-29T05:22:44.516Z,51.179253
2023-03-29T05:23:43.481Z,51.179268
2023-03-29T05:24:43.461Z,51.179245
2023-03-29T05:25:43.459Z,51.179199
2023-03-29T05:26:43.446Z,51.179218
2023-03-29T05:27:43.427Z,51.179218
2023-03-29T05:28:43.417Z,51.179260
2023-03-29T05:29:43.410Z,51.179264
2023-03-29T05:30:43.435Z,51.179295
2023-03-29T05:31:43.403Z,51.179253
2023-03-29T05:32:43.406Z,51.179230
2023-03-29T05:33:43.393Z,51.179260
2023-03-29T05:34:43.429Z,51.179249
2023-03-29T05:35:43.392Z,51.179237
2023-03-29T05:36:43.357Z,51.179249
2023-03-29T05:37:43.336Z,51.179230
2023-03-29T05:38:43.307Z,51.179230
2023-03-29T05:39:43.317Z,51.179230
2023-03-29T05:40:43.314Z,51.179226
2023-03-29T05:41:43.287Z,51.179226
2023-03-29T05:42:43.277Z,51.179237
2023-03-29T05:43:43.249Z,51.179253
2023-03-29T05:44:43.253Z,51.179291
2023-03-29T05:45:43.326Z,51.179287
2023-03-29T05:46:43.226Z,51.179268
2023-03-29T05:47:43.293Z,51.179260
2023-03-29T05:48:43.223Z,51.179264
2023-03-29T05:49:43.205Z,51.179260
2023-03-29T05:50:45.126Z,51.179268
2023-03-29T05:51:44.200Z,51.179268
2023-03-29T05:52:43.202Z,51.179272
2023-03-29T05:53:43.183Z,51.179245
2023-03-29T05:54:43.164Z,51.179218
2023-03-29T05:55:43.141Z,51.179276
2023-03-29T05:56:43.158Z,51.179264
2023-03-29T05:57:43.115Z,51.179260
2023-03-29T05:58:43.099Z,51.179226
2023-03-29T05:59:43.090Z,51.179173
2023-03-29T06:00:43.082Z,51.179207
2023-03-29T06:01:43.082Z,51.179214
2023-03-29T06:02:43.143Z,51.179226
2023-03-29T06:03:43.298Z,51.179234
2023-03-29T06:04:43.154Z,51.179218
2023-03-29T06:05:43.028Z,51.179230
2023-03-29T06:06:43.016Z,51.179237
2023-03-29T06:07:43.015Z,51.179249
2023-03-29T06:08:43.005Z,51.179237
2023-03-29T06:09:43.019Z,51.179256
2023-03-29T06:10:42.999Z,51.179279
2023-03-29T06:11:42.989Z,51.179234
2023-03-29T06:12:42.964Z,51.179268
2023-03-29T06:13:42.961Z,51.179260
2023-03-29T06:14:42.960Z,51.179249
2023-03-29T06:15:42.930Z,51.179260
2023-03-29T06:16:43.048Z,51.179245
2023-03-29T06:17:42.954Z,51.179237
2023-03-29T06:18:42.889Z,51.179218
2023-03-29T06:19:42.880Z,51.179207
2023-03-29T06:20:42.880Z,51.179184
2023-03-29T06:21:42.851Z,51.179218
2023-03-29T06:22:42.862Z,51.179245
2023-03-29T06:23:42.876Z,51.179222
2023-03-29T06:24:42.848Z,51.179249
2023-03-29T06:25:42.824Z,51.179264
2023-03-29T06:26:42.813Z,51.179234
2023-03-29T06:27:42.808Z,51.179234
2023-03-29T06:28:42.787Z,51.179222
2023-03-29T06:29:42.772Z,51.179207
2023-03-29T06:30:42.757Z,51.179207
2023-03-29T06:31:42.792Z,51.179218
2023-03-29T06:32:42.796Z,51.179195
2023-03-29T06:33:42.763Z,51.179234
2023-03-29T06:34:42.759Z,51.179253
2023-03-29T06:35:42.724Z,51.179249
2023-03-29T06:36:42.715Z,51.179226
2023-03-29T06:37:42.693Z,51.179222
2023-03-29T06:38:42.709Z,51.179264
2023-03-29T06:39:42.687Z,51.179272
2023-03-29T06:40:42.676Z,51.179214
2023-03-29T06:41:42.653Z,51.179214
2023-03-29T06:42:42.647Z,51.179241
2023-03-29T06:43:42.646Z,51.179264
2023-03-29T06:44:42.622Z,51.179264
2023-03-29T06:45:42.640Z,51.179241
2023-03-29T06:46:42.630Z,51.179260
2023-03-29T06:47:42.647Z,51.179272
2023-03-29T06:48:42.605Z,51.179249
2023-03-29T06:49:42.577Z,51.179245
2023-03-29T06:50:42.600Z,51.179237
2023-03-29T06:51:42.563Z,51.179214
2023-03-29T06:52:42.528Z,51.179207
2023-03-29T06:53:42.526Z,51.179249
2023-03-29T06:54:42.537Z,51.179207
2023-03-29T06:55:42.507Z,51.179253
2023-03-29T06:56:42.552Z,51.179268
2023-03-29T06:57:42.501Z,51.179256
2023-03-29T06:58:42.500Z,51.179306
2023-03-29T06:59:42.484Z,51.179283
2023-03-29T07:00:42.472Z,51.179249
2023-03-29T07:01:42.463Z,51.179226
2023-03-29T07:02:42.503Z,51.179241
2023-03-29T07:03:44.180Z,51.179203
2023-03-29T07:04:42.493Z,51.179234
2023-03-29T07:05:42.410Z,51.179264
2023-03-29T07:06:42.396Z,51.179249
2023-03-29T07:07:42.393Z,51.179264
2023-03-29T07:08:42.374Z,51.179283
2023-03-29T07:09:42.387Z,51.179310
2023-03-29T07:10:42.352Z,51.179268
2023-03-29T07:11:42.370Z,51.179222
2023-03-29T07:12:42.344Z,51.179230
2023-03-29T07:13:42.416Z,51.179214
2023-03-29T07:14:44.089Z,51.179207
2023-03-29T07:15:42.298Z,51.179199
2023-03-29T07:16:42.365Z,51.179237
2023-03-29T07:17:42.314Z,51.179218
2023-03-29T07:18:42.265Z,51.179192
2023-03-29T07:19:42.264Z,51.179245
2023-03-29T07:20:42.249Z,51.179230
2023-03-29T07:21:42.232Z,51.179226
2023-03-29T07:22:42.224Z,51.179234
2023-03-29T07:23:42.225Z,51.179214
2023-03-29T07:24:42.185Z,51.179241
2023-03-29T07:25:42.182Z,51.179264
2023-03-29T07:26:52.343Z,51.179211
2023-03-29T07:27:44.163Z,51.179192
2023-03-29T07:28:42.170Z,51.179211
2023-03-29T07:29:42.145Z,51.179237
2023-03-29T07:30:42.152Z,51.179207
2023-03-29T07:31:42.124Z,51.179222
2023-03-29T07:32:42.264Z,51.179249
2023-03-29T07:33:42.233Z,51.179276
2023-03-29T07:34:42.087Z,51.179279
2023-03-29T07:35:42.122Z,51.179302
2023-03-29T07:36:42.062Z,51.179287
2023-03-29T07:37:42.048Z,51.179237
2023-03-29T07:38:42.069Z,51.179218
2023-03-29T07:39:42.048Z,51.179207
2023-03-29T07:40:42.020Z,51.179192
2023-03-29T07:41:42.117Z,51.179180
2023-03-29T07:42:42.033Z,51.179165
2023-03-29T07:43:42.019Z,51.179180
2023-03-29T07:44:41.998Z,51.179184
2023-03-29T07:45:42.008Z,51.179226
2023-03-29T07:46:41.972Z,51.179276
2023-03-29T07:47:41.964Z,51.179298
2023-03-29T07:48:41.932Z,51.179283
2023-03-29T07:49:41.917Z,51.179298
2023-03-29T07:50:41.918Z,51.179276
2023-03-29T07:51:41.905Z,51.179234
2023-03-29T07:52:41.912Z,51.179230
2023-03-29T07:53:41.905Z,51.179222
2023-03-29T07:54:41.909Z,51.179234
2023-03-29T07:55:44.660Z,51.179211
2023-03-29T07:56:41.901Z,51.179230
2023-03-29T07:57:41.838Z,51.179245
2023-03-29T07:58:41.842Z,51.179199
2023-03-29T07:59:41.822Z,51.179214
2023-03-29T08:00:41.811Z,51.179249
2023-03-29T08:01:41.802Z,51.179203
2023-03-29T08:02:41.829Z,51.179180
2023-03-29T08:03:41.779Z,51.179192
2023-03-29T08:04:41.822Z,51.179268
2023-03-29T08:05:42.267Z,51.179276
2023-03-29T08:06:41.741Z,51.179256
2023-03-29T08:07:41.722Z,51.179237
2023-03-29T08:08:41.723Z,51.179222
2023-03-29T08:09:41.704Z,51.179241
2023-03-29T08:10:41.716Z,51.179287
2023-03-29T08:11:41.709Z,51.179279
2023-03-29T08:12:41.666Z,51.179268
2023-03-29T08:13:41.670Z,51.179211
2023-03-29T08:14:41.656Z,51.179218
2023-03-29T08:15:41.655Z,51.179253
2023-03-29T08:16:41.686Z,51.179256
2023-03-29T08:17:41.652Z,51.179264
2023-03-29T08:18:41.613Z,51.179256
2023-03-29T08:19:41.614Z,51.179272
2023-03-29T08:20:42.625Z,51.179283
2023-03-29T08:21:41.568Z,51.179279
2023-03-29T08:22:41.567Z,51.179256
2023-03-29T08:23:41.549Z,51.179264
2023-03-29T08:24:41.560Z,51.179249
2023-03-29T08:25:41.517Z,51.179241
2023-03-29T08:26:41.533Z,51.179245
2023-03-29T08:27:41.552Z,51.179287
2023-03-29T08:28:41.501Z,51.179287
2023-03-29T08:29:41.483Z,51.179298
2023-03-29T08:30:41.531Z,51.179329
2023-03-29T08:31:41.508Z,51.179306
2023-03-29T08:32:41.511Z,51.179295
2023-03-29T08:33:41.465Z,51.179276
2023-03-29T08:34:41.413Z,51.179272
2023-03-29T08:35:41.464Z,51.179279
2023-03-29T08:36:41.414Z,51.179234
2023-03-29T08:37:41.434Z,51.179222
2023-03-29T08:38:41.385Z,51.179249
2023-03-29T08:39:41.398Z,51.179264
2023-03-29T08:40:41.378Z,51.179268
2023-03-29T08:41:41.333Z,51.179256
2023-03-29T08:42:41.344Z,51.179260
2023-03-29T08:43:41.365Z,51.179226
2023-03-29T08:44:41.333Z,51.179211
2023-03-29T08:45:41.332Z,51.179222
2023-03-29T08:46:41.382Z,51.179222
2023-03-29T08:47:41.318Z,51.179230
2023-03-29T08:48:41.274Z,51.179218
2023-03-29T08:49:41.273Z,51.179207
2023-03-29T08:50:41.260Z,51.179203
2023-03-29T08:51:41.236Z,51.179234
2023-03-29T08:52:41.246Z,51.179245
2023-03-29T08:53:41.215Z,51.179245
2023-03-29T08:54:41.217Z,51.179260
2023-03-29T08:55:41.193Z,51.179226
2023-03-29T08:56:41.187Z,51.179195
2023-03-29T08:57:41.228Z,51.179165
2023-03-29T08:58:41.151Z,51.179153
2023-03-29T08:59:41.170Z,51.179169
2023-03-29T09:00:41.129Z,51.179218
2023-03-29T09:01:41.127Z,51.179241
2023-03-29T09:02:41.198Z,51.179184
2023-03-29T09:03:41.235Z,51.179195
2023-03-29T09:04:41.080Z,51.179207
2023-03-29T09:05:41.128Z,51.179203
2023-03-29T09:06:41.075Z,51.179241
2023-03-29T09:07:41.070Z,51.179245
2023-03-29T09:08:41.075Z,51.179256
2023-03-29T09:09:41.032Z,51.179230
2023-03-29T09:10:41.079Z,51.179199
2023-03-29T09:11:41.042Z,51.179222
2023-03-29T09:12:41.000Z,51.179237
2023-03-29T09:13:41.000Z,51.179241
2023-03-29T09:14:40.980Z,51.179218
2023-03-29T09:15:41.022Z,51.179234
2023-03-29T09:16:40.977Z,51.179230
2023-03-29T09:17:40.966Z,51.179226
2023-03-29T09:19:13.150Z,51.179245
2023-03-29T09:19:40.892Z,51.179218
2023-03-29T09:20:40.918Z,51.179237
2023-03-29T09:21:40.925Z,51.179256
2023-03-29T09:22:40.889Z,51.179279
2023-03-29T09:23:40.859Z,51.179260
2023-03-29T09:24:40.895Z,51.179241
2023-03-29T09:25:50.716Z,51.179253
2023-03-29T09:26:42.826Z,51.179230
2023-03-29T09:27:40.857Z,51.179226
2023-03-29T09:28:40.847Z,51.179230
2023-03-29T09:29:40.794Z,51.179214
2023-03-29T09:30:40.783Z,51.179237
2023-03-29T09:31:40.822Z,51.179256
2023-03-29T09:32:40.784Z,51.179283
2023-03-29T09:33:40.748Z,51.179279
2023-03-29T09:34:40.756Z,51.179264
2023-03-29T09:35:40.769Z,51.179276
2023-03-29T09:36:40.716Z,51.179260
2023-03-29T09:37:40.739Z,51.179268
2023-03-29T09:38:40.702Z,51.179268
2023-03-29T09:39:40.665Z,51.179218
2023-03-29T09:40:40.684Z,51.179161
2023-03-29T09:41:40.683Z,51.179195
2023-03-29T09:42:40.633Z,51.179222
2023-03-29T09:43:40.659Z,51.179249
2023-03-29T09:44:40.646Z,51.179245
2023-03-29T09:45:40.649Z,51.179226
2023-03-29T09:46:40.592Z,51.179203
2023-03-29T09:47:40.667Z,51.179207
2023-03-29T09:48:41.583Z,51.179203
2023-03-29T09:49:40.593Z,51.179218
2023-03-29T09:50:40.563Z,51.179192
2023-03-29T09:51:40.567Z,51.179153
2023-03-29T09:52:40.543Z,51.179180
2023-03-29T09:53:40.592Z,51.179195
2023-03-29T09:54:40.505Z,51.179188
2023-03-29T09:55:40.514Z,51.179165
2023-03-29T09:56:40.594Z,51.179169
2023-03-29T09:57:40.456Z,51.179222
2023-03-29T09:58:40.496Z,51.179211
2023-03-29T09:59:40.445Z,51.179173
2023-03-29T10:00:40.431Z,51.179161
2023-03-29T10:01:40.491Z,51.179176
2023-03-29T10:02:40.485Z,51.179173
2023-03-29T10:03:40.396Z,51.179184
2023-03-29T10:04:40.456Z,51.179188
2023-03-29T10:05:40.417Z,51.179184
2023-03-29T10:06:40.364Z,51.179203
2023-03-29T10:07:40.395Z,51.179234
2023-03-29T10:08:40.365Z,51.179226
2023-03-29T10:09:40.340Z,51.179234
2023-03-29T10:10:40.340Z,51.179253
2023-03-29T10:11:40.349Z,51.179207
2023-03-29T10:12:40.324Z,51.179176
2023-03-29T10:13:40.279Z,51.179150
2023-03-29T10:14:40.313Z,51.179153
2023-03-29T10:15:40.301Z,51.179176
2023-03-29T10:16:40.429Z,51.179180
2023-03-29T10:17:40.337Z,51.179218
2023-03-29T10:18:40.261Z,51.179211
2023-03-29T10:19:40.218Z,51.179264
2023-03-29T10:20:40.231Z,51.179283
2023-03-29T10:21:40.232Z,51.179272
2023-03-29T10:22:40.197Z,51.179249
2023-03-29T10:23:40.241Z,51.179237
2023-03-29T10:24:40.185Z,51.179234
2023-03-29T10:25:42.297Z,51.179222
2023-03-29T10:26:41.156Z,51.179256
2023-03-29T10:27:40.136Z,51.179245
2023-03-29T10:28:40.122Z,51.179249
2023-03-29T10:29:40.136Z,51.179249
2023-03-29T10:30:40.164Z,51.179249
2023-03-29T10:31:40.170Z,51.179253
2023-03-29T10:32:40.154Z,51.179249
2023-03-29T10:33:40.066Z,51.179184
2023-03-29T10:34:40.057Z,51.179184
2023-03-29T10:35:40.097Z,51.179211
2023-03-29T10:36:40.061Z,51.179180
2023-03-29T10:37:40.026Z,51.179241
2023-03-29T10:38:40.036Z,51.179260
2023-03-29T10:39:40.004Z,51.179245
2023-03-29T10:40:39.998Z,51.179199
2023-03-29T10:41:40.020Z,51.179195
2023-03-29T10:42:40.042Z,51.179207
2023-03-29T10:43:39.951Z,51.179207
2023-03-29T10:44:39.963Z,51.179218
2023-03-29T10:45:39.953Z,51.179226
2023-03-29T10:46:40.067Z,51.179234
2023-03-29T10:47:40.543Z,51.179264
2023-03-29T10:48:39.930Z,51.179268
2023-03-29T10:49:39.883Z,51.179230
2023-03-29T10:50:39.883Z,51.179241
2023-03-29T10:51:39.890Z,51.179245
2023-03-29T10:52:39.870Z,51.179260
2023-03-29T10:53:39.867Z,51.179253
2023-03-29T10:54:39.892Z,51.179256
2023-03-29T10:55:39.843Z,51.179264
2023-03-29T10:56:39.883Z,51.179264
2023-03-29T10:57:39.807Z,51.179256
2023-03-29T10:58:39.799Z,51.179249
2023-03-29T10:59:39.804Z,51.179245
2023-03-29T11:00:39.771Z,51.179287
2023-03-29T11:01:39.818Z,51.179283
2023-03-29T11:02:39.904Z,51.179279
2023-03-29T11:03:39.780Z,51.179260
2023-03-29T11:04:39.731Z,51.179245
2023-03-29T11:05:39.744Z,51.179260
2023-03-29T11:06:39.711Z,51.179276
2023-03-29T11:07:39.678Z,51.179264
2023-03-29T11:08:39.687Z,51.179234
2023-03-29T11:09:39.744Z,51.179260
2023-03-29T11:10:39.666Z,51.179260
2023-03-29T11:11:39.685Z,51.179256
2023-03-29T11:12:39.669Z,51.179249
2023-03-29T11:13:39.627Z,51.179253
2023-03-29T11:14:39.620Z,51.179249
2023-03-29T11:15:39.663Z,51.179260
2023-03-29T11:16:39.605Z,51.179260
2023-03-29T11:17:40.603Z,51.179230
2023-03-29T11:18:39.606Z,51.179249
2023-03-29T11:19:39.559Z,51.179230
2023-03-29T11:20:39.567Z,51.179237
2023-03-29T11:21:39.577Z,51.179253
2023-03-29T11:22:39.533Z,51.179256
2023-03-29T11:23:39.533Z,51.179279
2023-03-29T11:24:39.513Z,51.179283